Date,TemperatureHighF,TemperatureAvgF,TemperatureLowF,DewpointHighF,DewpointAvgF,DewpointLowF,HumidityHigh,HumidityAvg,HumidityLow,PressureMaxIn,PressureMinIn,WindSpeedMaxMPH,WindSpeedAvgMPH,GustSpeedMaxMPH,PrecipitationSumIn
2013-7-1,83.6,73.2,62.1,65.3,60.9,57.2,84,66,50,30.01,29.90,11,2,11,0.00
2013-7-2,81.6,68.8,58.7,61.2,56.1,51.0,84,66,38,30.11,30.01,16,2,16,0.00
2013-7-3,73.5,65.1,59.3,55.1,50.9,46.5,74,61,40,30.15,30.04,13,3,16,0.00
2013-7-4,72.5,62.6,56.8,55.5,52.8,50.3,83,71,52,30.13,30.02,11,1,11,0.00
2013-7-5,75.0,64.2,54.7,57.9,54.1,49.1,85,71,53,30.03,29.94,13,1,13,0.00
2013-7-6,75.3,65.0,54.9,57.0,53.5,48.6,85,68,42,29.98,29.86,16,3,16,0.00
2013-7-7,77.6,64.8,56.3,61.0,55.9,50.1,85,74,54,29.95,29.87,8,1,8,0.00
2013-7-8,78.7,64.7,55.3,59.9,54.9,50.9,85,72,46,30.10,29.94,11,1,11,0.00
2013-7-9,79.8,66.7,55.0,59.2,54.4,48.3,85,66,43,30.11,29.99,16,2,16,0.00
2013-7-10,71.2,61.7,55.9,57.2,53.4,49.6,85,74,60,30.07,29.95,13,2,13,0.00
2013-7-11,66.9,59.6,55.1,51.7,49.2,47.1,80,69,52,30.09,29.99,14,2,14,0.00
2013-7-12,66.9,58.6,53.0,53.9,50.2,47.0,82,74,58,30.11,30.01,10,1,10,0.00
2013-7-13,73.6,62.2,51.4,52.4,48.8,45.8,82,63,39,30.20,30.11,16,3,16,0.00
2013-7-14,78.1,64.6,52.3,53.5,48.9,43.3,85,59,32,30.14,29.99,17,3,17,0.00
2013-7-15,76.6,66.4,54.9,54.6,49.7,44.4,82,57,35,30.05,29.89,20,4,21,0.00
2013-7-16,80.7,71.3,61.5,57.0,50.7,44.6,64,49,38,29.90,29.79,16,3,16,0.00
2013-7-17,73.1,65.7,59.3,57.5,55.5,51.6,83,70,52,30.19,29.86,14,2,14,0.02
2013-7-18,74.4,64.1,56.9,58.4,55.2,52.1,84,73,55,30.23,30.12,11,2,13,0.00
2013-7-19,77.1,64.0,54.6,60.5,55.6,48.6,84,75,55,30.17,30.04,9,2,11,0.00
2013-7-20,76.0,61.8,54.2,60.8,54.0,47.2,85,76,55,30.09,29.96,10,1,10,0.00
2013-7-21,76.4,62.6,54.1,60.6,54.1,47.4,85,74,56,29.99,29.90,9,1,9,0.00
2013-7-22,78.5,64.3,55.1,59.9,55.0,48.4,85,73,49,30.07,29.94,9,1,9,0.00
2013-7-23,80.3,65.5,53.4,60.3,52.8,46.9,85,66,33,30.07,29.97,16,2,16,0.00
2013-7-24,81.5,67.8,54.5,57.4,52.4,45.2,85,61,30,30.06,29.99,13,2,14,0.00
2013-7-25,81.2,66.9,52.1,55.8,52.7,45.5,85,63,38,30.10,30.02,13,2,13,0.00
2013-7-26,81.2,67.3,54.4,56.0,51.4,45.6,85,60,31,30.15,30.06,14,2,14,0.00
2013-7-27,76.7,64.1,54.2,54.5,51.4,48.1,85,65,40,30.17,29.99,12,1,12,0.00
2013-7-28,69.5,59.8,53.1,56.2,52.2,47.8,85,77,60,30.03,29.96,11,1,11,0.00
2013-7-29,74.7,63.6,54.6,56.6,53.4,50.0,85,71,51,30.01,29.95,11,1,11,0.00
2013-7-30,78.0,63.6,54.7,58.9,54.5,49.2,85,74,49,30.14,30.00,9,1,10,0.00
2013-7-31,71.2,60.9,54.6,60.6,54.5,48.4,85,79,67,30.12,29.99,9,1,9,0.00